sensor_id;sensor_type;location;lat;lon;timestamp;pressure;altitude;pressure_sealevel;temperature;humidity
20105;BME280;10212;42.714;23.310;2022-09-24T00:01:33;95566.09;;;5.15;88.40
20105;BME280;10212;42.714;23.310;2022-09-24T00:06:37;95563.50;;;5.15;88.26
20105;BME280;10212;42.714;23.310;2022-09-24T00:11:38;95562.28;;;5.36;86.67
20105;BME280;10212;42.714;23.310;2022-09-24T00:16:39;95554.84;;;5.33;86.75
20105;BME280;10212;42.714;23.310;2022-09-24T00:21:41;95556.09;;;5.29;87.08
20105;BME280;10212;42.714;23.310;2022-09-24T00:26:41;95553.19;;;5.24;87.15
20105;BME280;10212;42.714;23.310;2022-09-24T00:31:51;95553.06;;;5.34;85.83
20105;BME280;10212;42.714;23.310;2022-09-24T00:36:52;95558.84;;;5.19;86.96
20105;BME280;10212;42.714;23.310;2022-09-24T00:41:52;95552.06;;;5.18;87.18
20105;BME280;10212;42.714;23.310;2022-09-24T00:46:54;95548.16;;;5.05;87.90
20105;BME280;10212;42.714;23.310;2022-09-24T00:51:54;95552.81;;;5.02;88.35
20105;BME280;10212;42.714;23.310;2022-09-24T00:56:57;95547.31;;;5.05;88.07
20105;BME280;10212;42.714;23.310;2022-09-24T01:01:58;95554.66;;;4.83;89.04
20105;BME280;10212;42.714;23.310;2022-09-24T01:06:59;95543.19;;;4.77;89.41
20105;BME280;10212;42.714;23.310;2022-09-24T01:12:23;95540.63;;;4.77;89.47
20105;BME280;10212;42.714;23.310;2022-09-24T01:17:48;95542.78;;;4.64;90.77
20105;BME280;10212;42.714;23.310;2022-09-24T01:23:22;95547.25;;;4.53;91.21
20105;BME280;10212;42.714;23.310;2022-09-24T01:33:37;95543.38;;;4.49;91.79
20105;BME280;10212;42.714;23.310;2022-09-24T01:38:40;95544.59;;;4.37;92.48
20105;BME280;10212;42.714;23.310;2022-09-24T01:43:44;95545.84;;;4.32;93.77
20105;BME280;10212;42.714;23.310;2022-09-24T01:48:45;95552.03;;;4.40;92.83
20105;BME280;10212;42.714;23.310;2022-09-24T01:54:11;95549.84;;;4.00;94.52
20105;BME280;10212;42.714;23.310;2022-09-24T01:59:20;95555.66;;;4.02;94.91
20105;BME280;10212;42.714;23.310;2022-09-24T02:04:24;95559.56;;;4.06;94.36
20105;BME280;10212;42.714;23.310;2022-09-24T02:09:41;95569.91;;;4.06;94.29
20105;BME280;10212;42.714;23.310;2022-09-24T02:14:52;95573.75;;;4.29;93.03
20105;BME280;10212;42.714;23.310;2022-09-24T02:19:55;95573.56;;;4.22;92.76
20105;BME280;10212;42.714;23.310;2022-09-24T02:25:00;95581.59;;;4.19;93.36
20105;BME280;10212;42.714;23.310;2022-09-24T02:30:04;95585.78;;;4.20;92.63
20105;BME280;10212;42.714;23.310;2022-09-24T02:35:08;95595.69;;;4.06;92.00
20105;BME280;10212;42.714;23.310;2022-09-24T02:40:29;95589.94;;;4.13;91.74
20105;BME280;10212;42.714;23.310;2022-09-24T02:45:32;95591.47;;;4.05;91.94
20105;BME280;10212;42.714;23.310;2022-09-24T02:50:47;95596.59;;;3.97;92.26
20105;BME280;10212;42.714;23.310;2022-09-24T02:55:48;95607.16;;;3.85;92.38
20105;BME280;10212;42.714;23.310;2022-09-24T03:00:49;95613.84;;;3.78;93.25
20105;BME280;10212;42.714;23.310;2022-09-24T03:05:50;95610.44;;;3.78;93.12
20105;BME280;10212;42.714;23.310;2022-09-24T03:10:55;95613.38;;;3.65;94.09
20105;BME280;10212;42.714;23.310;2022-09-24T03:15:55;95600.41;;;3.56;94.71
20105;BME280;10212;42.714;23.310;2022-09-24T03:21:20;95603.97;;;3.55;94.92
20105;BME280;10212;42.714;23.310;2022-09-24T03:26:21;95617.97;;;3.71;94.21
20105;BME280;10212;42.714;23.310;2022-09-24T03:31:22;95613.69;;;3.61;94.88
20105;BME280;10212;42.714;23.310;2022-09-24T03:36:24;95619.06;;;3.68;93.84
20105;BME280;10212;42.714;23.310;2022-09-24T03:41:25;95620.38;;;3.54;93.45
20105;BME280;10212;42.714;23.310;2022-09-24T03:46:29;95624.28;;;3.58;93.64
20105;BME280;10212;42.714;23.310;2022-09-24T03:51:32;95628.69;;;3.48;94.02
20105;BME280;10212;42.714;23.310;2022-09-24T03:56:33;95626.03;;;3.40;94.20
20105;BME280;10212;42.714;23.310;2022-09-24T04:01:33;95633.97;;;3.28;94.57
20105;BME280;10212;42.714;23.310;2022-09-24T04:06:36;95631.47;;;3.36;94.27
20105;BME280;10212;42.714;23.310;2022-09-24T04:11:37;95629.88;;;3.25;94.37
20105;BME280;10212;42.714;23.310;2022-09-24T04:16:37;95638.59;;;3.24;94.52
20105;BME280;10212;42.714;23.310;2022-09-24T04:21:37;95632.34;;;3.27;95.29
20105;BME280;10212;42.714;23.310;2022-09-24T04:26:38;95642.38;;;3.30;95.07
20105;BME280;10212;42.714;23.310;2022-09-24T04:31:39;95650.19;;;3.38;94.76
20105;BME280;10212;42.714;23.310;2022-09-24T04:36:39;95660.34;;;3.40;93.96
20105;BME280;10212;42.714;23.310;2022-09-24T04:41:41;95654.88;;;3.25;94.24
20105;BME280;10212;42.714;23.310;2022-09-24T04:46:42;95656.72;;;3.33;93.03
20105;BME280;10212;42.714;23.310;2022-09-24T04:51:42;95660.81;;;3.25;93.66
20105;BME280;10212;42.714;23.310;2022-09-24T04:56:43;95670.03;;;3.28;93.51
20105;BME280;10212;42.714;23.310;2022-09-24T05:01:43;95661.59;;;3.36;92.73
20105;BME280;10212;42.714;23.310;2022-09-24T05:06:46;95660.78;;;3.35;92.31
20105;BME280;10212;42.714;23.310;2022-09-24T05:11:47;95665.88;;;3.45;92.62
20105;BME280;10212;42.714;23.310;2022-09-24T05:16:48;95653.53;;;3.49;92.36
20105;BME280;10212;42.714;23.310;2022-09-24T05:21:48;95659.66;;;3.48;92.64
20105;BME280;10212;42.714;23.310;2022-09-24T05:26:49;95662.06;;;3.49;92.81
20105;BME280;10212;42.714;23.310;2022-09-24T05:32:14;95676.47;;;3.70;92.53
20105;BME280;10212;42.714;23.310;2022-09-24T05:37:14;95676.81;;;3.85;92.20
20105;BME280;10212;42.714;23.310;2022-09-24T05:42:15;95675.34;;;4.01;91.35
20105;BME280;10212;42.714;23.310;2022-09-24T05:47:16;95684.41;;;4.05;90.53
20105;BME280;10212;42.714;23.310;2022-09-24T05:52:17;95686.84;;;4.25;90.37
20105;BME280;10212;42.714;23.310;2022-09-24T05:57:17;95683.59;;;4.23;90.12
20105;BME280;10212;42.714;23.310;2022-09-24T06:02:18;95691.13;;;4.34;89.90
20105;BME280;10212;42.714;23.310;2022-09-24T06:07:19;95690.44;;;4.32;90.10
20105;BME280;10212;42.714;23.310;2022-09-24T06:12:20;95692.78;;;4.62;89.61
20105;BME280;10212;42.714;23.310;2022-09-24T06:17:22;95692.75;;;4.80;88.80
20105;BME280;10212;42.714;23.310;2022-09-24T06:22:23;95688.31;;;4.99;88.35
20105;BME280;10212;42.714;23.310;2022-09-24T06:27:23;95703.44;;;5.12;88.61
20105;BME280;10212;42.714;23.310;2022-09-24T06:32:24;95695.91;;;5.27;88.21
20105;BME280;10212;42.714;23.310;2022-09-24T06:37:24;95708.34;;;5.59;87.40
20105;BME280;10212;42.714;23.310;2022-09-24T06:42:25;95695.94;;;5.79;85.93
20105;BME280;10212;42.714;23.310;2022-09-24T06:47:27;95696.25;;;5.67;86.29
20105;BME280;10212;42.714;23.310;2022-09-24T06:52:30;95696.44;;;5.74;85.97
20105;BME280;10212;42.714;23.310;2022-09-24T06:57:30;95693.84;;;5.74;86.27
20105;BME280;10212;42.714;23.310;2022-09-24T07:02:30;95692.28;;;5.98;85.81
20105;BME280;10212;42.714;23.310;2022-09-24T07:07:31;95703.19;;;6.19;84.67
20105;BME280;10212;42.714;23.310;2022-09-24T07:12:34;95702.38;;;6.26;84.63
20105;BME280;10212;42.714;23.310;2022-09-24T07:17:36;95705.81;;;6.44;83.27
20105;BME280;10212;42.714;23.310;2022-09-24T07:22:38;95696.41;;;6.59;81.57
20105;BME280;10212;42.714;23.310;2022-09-24T07:27:39;95693.00;;;6.59;81.56
20105;BME280;10212;42.714;23.310;2022-09-24T07:32:39;95691.03;;;6.94;80.13
20105;BME280;10212;42.714;23.310;2022-09-24T07:37:40;95688.75;;;6.99;78.51
20105;BME280;10212;42.714;23.310;2022-09-24T07:42:47;95691.09;;;7.34;77.15
20105;BME280;10212;42.714;23.310;2022-09-24T07:48:02;95691.22;;;7.41;77.43
20105;BME280;10212;42.714;23.310;2022-09-24T07:53:02;95680.09;;;7.64;77.90
20105;BME280;10212;42.714;23.310;2022-09-24T07:58:04;95675.66;;;7.81;75.63
20105;BME280;10212;42.714;23.310;2022-09-24T08:03:05;95684.06;;;8.15;74.02
20105;BME280;10212;42.714;23.310;2022-09-24T08:08:06;95668.06;;;8.27;73.06
20105;BME280;10212;42.714;23.310;2022-09-24T08:13:07;95672.69;;;8.40;72.37
20105;BME280;10212;42.714;23.310;2022-09-24T08:18:08;95668.50;;;8.54;72.17
20105;BME280;10212;42.714;23.310;2022-09-24T08:23:09;95670.34;;;8.68;71.89
20105;BME280;10212;42.714;23.310;2022-09-24T08:28:09;95658.91;;;9.08;69.89
20105;BME280;10212;42.714;23.310;2022-09-24T08:33:11;95658.53;;;9.41;69.83
20105;BME280;10212;42.714;23.310;2022-09-24T08:38:11;95659.44;;;9.49;67.50
20105;BME280;10212;42.714;23.310;2022-09-24T08:43:36;95648.47;;;9.69;67.43
20105;BME280;10212;42.714;23.310;2022-09-24T08:48:42;95642.16;;;9.78;66.24
20105;BME280;10212;42.714;23.310;2022-09-24T08:53:55;95638.16;;;9.97;65.55
20105;BME280;10212;42.714;23.310;2022-09-24T08:59:01;95632.91;;;10.19;66.00
20105;BME280;10212;42.714;23.310;2022-09-24T09:09:19;95624.75;;;10.73;62.94
20105;BME280;10212;42.714;23.310;2022-09-24T09:19:36;95625.13;;;11.41;59.85
20105;BME280;10212;42.714;23.310;2022-09-24T09:24:51;95610.88;;;11.43;59.43
20105;BME280;10212;42.714;23.310;2022-09-24T09:29:56;95604.91;;;11.70;58.91
20105;BME280;10212;42.714;23.310;2022-09-24T09:45:24;95570.81;;;12.60;54.99
20105;BME280;10212;42.714;23.310;2022-09-24T09:50:44;95569.31;;;13.05;54.37
20105;BME280;10212;42.714;23.310;2022-09-24T09:56:12;95548.56;;;13.10;54.24
20105;BME280;10212;42.714;23.310;2022-09-24T10:01:14;95540.66;;;13.62;50.45
20105;BME280;10212;42.714;23.310;2022-09-24T10:06:26;95537.34;;;13.81;49.31
20105;BME280;10212;42.714;23.310;2022-09-24T10:11:27;95533.81;;;14.19;47.78
20105;BME280;10212;42.714;23.310;2022-09-24T10:16:27;95524.47;;;14.30;48.41
20105;BME280;10212;42.714;23.310;2022-09-24T10:21:35;95518.44;;;14.49;48.62
20105;BME280;10212;42.714;23.310;2022-09-24T10:26:40;95515.38;;;14.70;45.63
20105;BME280;10212;42.714;23.310;2022-09-24T10:31:42;95518.63;;;14.91;45.22
20105;BME280;10212;42.714;23.310;2022-09-24T10:36:52;95504.81;;;15.15;41.04
20105;BME280;10212;42.714;23.310;2022-09-24T10:41:54;95504.41;;;15.30;42.05
20105;BME280;10212;42.714;23.310;2022-09-24T10:47:36;95512.88;;;15.63;37.88
20105;BME280;10212;42.714;23.310;2022-09-24T10:52:41;95508.22;;;15.77;37.22
20105;BME280;10212;42.714;23.310;2022-09-24T11:03:22;95511.69;;;15.89;37.11
20105;BME280;10212;42.714;23.310;2022-09-24T11:25:30;95479.25;;;16.44;36.40
20105;BME280;10212;42.714;23.310;2022-09-24T11:30:47;95467.75;;;16.74;35.54
20105;BME280;10212;42.714;23.310;2022-09-24T11:57:12;95460.38;;;17.29;34.79
20105;BME280;10212;42.714;23.310;2022-09-24T12:02:27;95444.19;;;17.55;34.59
20105;BME280;10212;42.714;23.310;2022-09-24T12:07:31;95433.97;;;17.58;33.27
20105;BME280;10212;42.714;23.310;2022-09-24T12:12:44;95430.16;;;17.66;33.71
20105;BME280;10212;42.714;23.310;2022-09-24T12:22:56;95444.59;;;18.15;32.71
20105;BME280;10212;42.714;23.310;2022-09-24T12:28:01;95430.16;;;18.18;32.56
20105;BME280;10212;42.714;23.310;2022-09-24T12:38:25;95433.41;;;18.25;33.47
20105;BME280;10212;42.714;23.310;2022-09-24T12:48:42;95428.72;;;18.32;33.11
20105;BME280;10212;42.714;23.310;2022-09-24T12:53:58;95419.22;;;18.31;33.49
20105;BME280;10212;42.714;23.310;2022-09-24T12:58:59;95408.56;;;18.43;32.79
20105;BME280;10212;42.714;23.310;2022-09-24T13:04:04;95413.50;;;18.40;33.02
20105;BME280;10212;42.714;23.310;2022-09-24T13:09:40;95404.13;;;18.49;33.39
20105;BME280;10212;42.714;23.310;2022-09-24T13:14:46;95406.44;;;18.68;33.27
20105;BME280;10212;42.714;23.310;2022-09-24T13:19:55;95408.13;;;18.74;32.20
20105;BME280;10212;42.714;23.310;2022-09-24T13:30:39;95398.22;;;18.87;31.89
20105;BME280;10212;42.714;23.310;2022-09-24T13:35:46;95387.25;;;19.00;31.38
20105;BME280;10212;42.714;23.310;2022-09-24T13:40:59;95379.53;;;19.21;31.16
20105;BME280;10212;42.714;23.310;2022-09-24T13:46:04;95378.81;;;19.26;31.22
20105;BME280;10212;42.714;23.310;2022-09-24T13:51:10;95368.91;;;19.16;30.49
20105;BME280;10212;42.714;23.310;2022-09-24T13:56:18;95365.84;;;19.24;31.20
20105;BME280;10212;42.714;23.310;2022-09-24T14:01:24;95361.94;;;19.04;31.55
20105;BME280;10212;42.714;23.310;2022-09-24T14:06:36;95359.44;;;18.92;32.13
20105;BME280;10212;42.714;23.310;2022-09-24T14:11:37;95361.34;;;18.97;32.21
20105;BME280;10212;42.714;23.310;2022-09-24T14:16:47;95360.69;;;18.85;32.59
20105;BME280;10212;42.714;23.310;2022-09-24T14:21:53;95357.28;;;18.89;32.12
20105;BME280;10212;42.714;23.310;2022-09-24T14:27:15;95358.03;;;18.85;31.89
20105;BME280;10212;42.714;23.310;2022-09-24T14:32:25;95354.34;;;18.86;31.99
20105;BME280;10212;42.714;23.310;2022-09-24T14:37:30;95351.53;;;18.92;32.38
20105;BME280;10212;42.714;23.310;2022-09-24T14:42:36;95365.31;;;19.00;32.49
20105;BME280;10212;42.714;23.310;2022-09-24T14:47:38;95356.94;;;18.80;32.90
20105;BME280;10212;42.714;23.310;2022-09-24T14:52:39;95369.16;;;18.87;34.68
20105;BME280;10212;42.714;23.310;2022-09-24T14:57:41;95371.66;;;18.49;36.38
20105;BME280;10212;42.714;23.310;2022-09-24T15:02:42;95368.28;;;18.53;37.28
20105;BME280;10212;42.714;23.310;2022-09-24T15:07:42;95371.41;;;18.50;37.69
20105;BME280;10212;42.714;23.310;2022-09-24T15:12:43;95376.47;;;18.52;37.54
20105;BME280;10212;42.714;23.310;2022-09-24T15:17:43;95372.34;;;18.39;37.71
20105;BME280;10212;42.714;23.310;2022-09-24T15:22:45;95368.81;;;18.33;37.41
20105;BME280;10212;42.714;23.310;2022-09-24T15:27:46;95375.28;;;18.20;38.48
20105;BME280;10212;42.714;23.310;2022-09-24T15:32:48;95382.94;;;18.04;38.33
20105;BME280;10212;42.714;23.310;2022-09-24T15:37:51;95374.31;;;17.92;38.89
20105;BME280;10212;42.714;23.310;2022-09-24T15:42:52;95378.50;;;17.88;38.98
20105;BME280;10212;42.714;23.310;2022-09-24T15:47:52;95378.22;;;17.67;39.67
20105;BME280;10212;42.714;23.310;2022-09-24T15:52:57;95385.72;;;17.75;39.50
20105;BME280;10212;42.714;23.310;2022-09-24T15:57:58;95389.72;;;17.60;39.83
20105;BME280;10212;42.714;23.310;2022-09-24T16:03:01;95392.75;;;17.35;40.57
20105;BME280;10212;42.714;23.310;2022-09-24T16:08:01;95399.94;;;17.22;40.88
20105;BME280;10212;42.714;23.310;2022-09-24T16:13:02;95401.94;;;17.03;41.42
20105;BME280;10212;42.714;23.310;2022-09-24T16:18:04;95404.56;;;16.74;43.41
20105;BME280;10212;42.714;23.310;2022-09-24T16:23:06;95405.34;;;16.33;45.31
20105;BME280;10212;42.714;23.310;2022-09-24T16:28:09;95407.41;;;15.95;46.79
20105;BME280;10212;42.714;23.310;2022-09-24T16:33:09;95418.91;;;15.46;49.92
20105;BME280;10212;42.714;23.310;2022-09-24T16:38:10;95428.75;;;15.08;54.49
20105;BME280;10212;42.714;23.310;2022-09-24T16:43:10;95426.41;;;15.30;47.70
20105;BME280;10212;42.714;23.310;2022-09-24T16:48:11;95426.69;;;15.10;52.41
20105;BME280;10212;42.714;23.310;2022-09-24T16:53:12;95436.34;;;14.79;54.45
20105;BME280;10212;42.714;23.310;2022-09-24T16:58:13;95436.31;;;14.48;56.07
20105;BME280;10212;42.714;23.310;2022-09-24T17:03:14;95443.78;;;14.26;57.61
20105;BME280;10212;42.714;23.310;2022-09-24T17:08:14;95453.97;;;14.15;55.51
20105;BME280;10212;42.714;23.310;2022-09-24T17:13:15;95456.56;;;13.96;56.33
20105;BME280;10212;42.714;23.310;2022-09-24T17:18:15;95468.00;;;13.77;57.53
20105;BME280;10212;42.714;23.310;2022-09-24T17:23:16;95476.41;;;13.60;57.82
20105;BME280;10212;42.714;23.310;2022-09-24T17:28:16;95473.88;;;13.39;60.55
20105;BME280;10212;42.714;23.310;2022-09-24T17:33:17;95475.16;;;13.23;60.03
20105;BME280;10212;42.714;23.310;2022-09-24T17:38:17;95485.34;;;13.06;60.54
20105;BME280;10212;42.714;23.310;2022-09-24T17:43:18;95481.78;;;12.87;60.88
20105;BME280;10212;42.714;23.310;2022-09-24T17:48:19;95490.28;;;12.75;62.72
20105;BME280;10212;42.714;23.310;2022-09-24T17:53:20;95493.91;;;12.74;61.71
20105;BME280;10212;42.714;23.310;2022-09-24T17:58:21;95493.56;;;12.57;62.89
20105;BME280;10212;42.714;23.310;2022-09-24T18:03:21;95489.88;;;12.78;60.83
20105;BME280;10212;42.714;23.310;2022-09-24T18:08:22;95494.72;;;12.75;61.40
20105;BME280;10212;42.714;23.310;2022-09-24T18:13:22;95495.53;;;12.69;60.99
20105;BME280;10212;42.714;23.310;2022-09-24T18:18:23;95489.47;;;12.82;56.94
20105;BME280;10212;42.714;23.310;2022-09-24T18:23:24;95495.31;;;12.84;58.76
20105;BME280;10212;42.714;23.310;2022-09-24T18:28:24;95499.13;;;12.81;57.46
20105;BME280;10212;42.714;23.310;2022-09-24T18:33:25;95503.56;;;12.74;59.46
20105;BME280;10212;42.714;23.310;2022-09-24T18:38:27;95502.38;;;12.63;60.15
20105;BME280;10212;42.714;23.310;2022-09-24T18:43:29;95515.69;;;12.68;57.79
20105;BME280;10212;42.714;23.310;2022-09-24T18:48:31;95514.91;;;12.47;61.34
20105;BME280;10212;42.714;23.310;2022-09-24T18:53:32;95506.47;;;12.45;60.74
20105;BME280;10212;42.714;23.310;2022-09-24T18:58:34;95505.28;;;12.27;62.19
20105;BME280;10212;42.714;23.310;2022-09-24T19:03:35;95501.25;;;12.04;62.43
20105;BME280;10212;42.714;23.310;2022-09-24T19:08:39;95502.44;;;11.68;64.11
20105;BME280;10212;42.714;23.310;2022-09-24T19:13:41;95516.50;;;11.60;64.90
20105;BME280;10212;42.714;23.310;2022-09-24T19:18:42;95520.06;;;11.39;66.12
20105;BME280;10212;42.714;23.310;2022-09-24T19:23:54;95524.66;;;11.23;66.96
20105;BME280;10212;42.714;23.310;2022-09-24T19:28:55;95523.66;;;11.31;66.59
20105;BME280;10212;42.714;23.310;2022-09-24T19:33:57;95524.66;;;11.23;66.96
20105;BME280;10212;42.714;23.310;2022-09-24T19:38:57;95521.56;;;11.13;68.13
20105;BME280;10212;42.714;23.310;2022-09-24T19:43:59;95522.16;;;11.01;68.83
20105;BME280;10212;42.714;23.310;2022-09-24T19:49:01;95528.75;;;10.97;69.66
20105;BME280;10212;42.714;23.310;2022-09-24T19:54:04;95531.44;;;10.68;70.88
20105;BME280;10212;42.714;23.310;2022-09-24T19:59:08;95541.09;;;10.46;71.36
20105;BME280;10212;42.714;23.310;2022-09-24T20:04:09;95537.28;;;10.42;71.38
20105;BME280;10212;42.714;23.310;2022-09-24T20:09:09;95548.25;;;10.37;72.07
20105;BME280;10212;42.714;23.310;2022-09-24T20:14:10;95553.34;;;10.17;72.62
20105;BME280;10212;42.714;23.310;2022-09-24T20:19:14;95551.84;;;10.07;73.70
20105;BME280;10212;42.714;23.310;2022-09-24T20:24:15;95547.75;;;9.98;74.41
20105;BME280;10212;42.714;23.310;2022-09-24T20:29:15;95552.09;;;9.91;75.38
20105;BME280;10212;42.714;23.310;2022-09-24T20:34:23;95549.38;;;9.77;75.21
20105;BME280;10212;42.714;23.310;2022-09-24T20:39:25;95553.97;;;9.75;76.43
20105;BME280;10212;42.714;23.310;2022-09-24T20:44:25;95553.28;;;9.44;76.56
20105;BME280;10212;42.714;23.310;2022-09-24T20:49:26;95564.84;;;9.41;76.26
20105;BME280;10212;42.714;23.310;2022-09-24T20:54:27;95560.47;;;9.27;77.96
20105;BME280;10212;42.714;23.310;2022-09-24T20:59:27;95557.88;;;9.27;77.79
20105;BME280;10212;42.714;23.310;2022-09-24T21:04:29;95560.31;;;9.28;77.96
20105;BME280;10212;42.714;23.310;2022-09-24T21:09:29;95565.34;;;9.15;78.39
20105;BME280;10212;42.714;23.310;2022-09-24T21:14:29;95570.31;;;8.95;79.28
20105;BME280;10212;42.714;23.310;2022-09-24T21:19:30;95569.31;;;9.11;79.10
20105;BME280;10212;42.714;23.310;2022-09-24T21:24:35;95569.94;;;8.98;79.50
20105;BME280;10212;42.714;23.310;2022-09-24T21:29:35;95563.84;;;8.90;79.90
20105;BME280;10212;42.714;23.310;2022-09-24T21:34:36;95565.53;;;8.83;80.55
20105;BME280;10212;42.714;23.310;2022-09-24T21:39:36;95559.81;;;8.88;79.72
20105;BME280;10212;42.714;23.310;2022-09-24T21:44:37;95571.75;;;8.82;79.61
20105;BME280;10212;42.714;23.310;2022-09-24T21:49:37;95562.78;;;8.70;79.17
20105;BME280;10212;42.714;23.310;2022-09-24T21:54:38;95564.66;;;8.76;79.22
20105;BME280;10212;42.714;23.310;2022-09-24T21:59:38;95566.06;;;8.63;79.74
20105;BME280;10212;42.714;23.310;2022-09-24T22:04:57;95558.19;;;8.56;79.08
20105;BME280;10212;42.714;23.310;2022-09-24T22:10:00;95566.88;;;8.49;78.98
20105;BME280;10212;42.714;23.310;2022-09-24T22:15:00;95564.00;;;8.43;79.57
20105;BME280;10212;42.714;23.310;2022-09-24T22:20:02;95567.91;;;8.24;81.16
20105;BME280;10212;42.714;23.310;2022-09-24T22:25:03;95579.16;;;8.16;81.37
20105;BME280;10212;42.714;23.310;2022-09-24T22:30:04;95572.63;;;8.20;81.46
20105;BME280;10212;42.714;23.310;2022-09-24T22:35:04;95574.22;;;8.06;81.95
20105;BME280;10212;42.714;23.310;2022-09-24T22:40:24;95571.66;;;7.98;82.84
20105;BME280;10212;42.714;23.310;2022-09-24T22:45:24;95573.41;;;7.82;83.90
20105;BME280;10212;42.714;23.310;2022-09-24T22:50:25;95566.72;;;7.88;83.01
20105;BME280;10212;42.714;23.310;2022-09-24T22:55:25;95563.31;;;7.88;83.88
20105;BME280;10212;42.714;23.310;2022-09-24T23:00:26;95573.41;;;7.82;83.87
20105;BME280;10212;42.714;23.310;2022-09-24T23:05:26;95568.38;;;7.81;83.75
20105;BME280;10212;42.714;23.310;2022-09-24T23:10:28;95590.47;;;7.77;83.96
20105;BME280;10212;42.714;23.310;2022-09-24T23:15:29;95578.94;;;8.03;81.25
20105;BME280;10212;42.714;23.310;2022-09-24T23:20:30;95570.41;;;7.94;82.66
20105;BME280;10212;42.714;23.310;2022-09-24T23:25:30;95567.94;;;8.01;81.30
20105;BME280;10212;42.714;23.310;2022-09-24T23:30:31;95566.06;;;7.86;82.51
20105;BME280;10212;42.714;23.310;2022-09-24T23:35:31;95570.00;;;7.82;82.86
20105;BME280;10212;42.714;23.310;2022-09-24T23:40:32;95560.94;;;7.78;82.61
20105;BME280;10212;42.714;23.310;2022-09-24T23:45:32;95571.22;;;7.71;82.27
20105;BME280;10212;42.714;23.310;2022-09-24T23:50:34;95568.34;;;7.66;83.07
20105;BME280;10212;42.714;23.310;2022-09-24T23:55:34;95568.91;;;7.53;82.31
